No particular awareness of the weather is required.    There are no Weather-warnings


Meteo18 Weather Cam more information Meteo18 Weather Cam


Thunder radar more information blitzortung!


Rain radar more information rain snow radar


Visit our other weather sites:

Template documentation
and downloads

And another site



Weather Underground History page Text

Daily Summary for May 17, 2017 Units:  English    Metric   Both
« Previous Day
Next Day »
Daily Weekly Monthly Yearly Custom
  High: Low: Average:
Temperature: 82.2 °F 53.6 °F 70 °F
Dew Point: 62.6 °F 51.3 °F 57.6 °F
Humidity: 93 % 42 % 67 %
Wind Speed: 11 mph 0 mph 2.9 mph
Wind Gust: 19 mph - -
Wind:- - SSW
Pressure: 30.3 in 29.9 in -
Precipitation: 0 in    
Historical Graphs
 
 
Tabular Data for May 17, 2017
Time Temperature Dew Point Pressure Wind Wind Speed Wind Gust Humidity Rainfall Rate (Hourly)
00:02 63.7 °F 55.2 °F 30.3 in Calm   2 mph 74 % 0 in
00:12 63.1 °F 55 °F 30.3 in WNW 1 mph 2 mph 75 % 0 in
00:17 62.2 °F 54.9 °F 30.3 in WNW 2 mph 2 mph 77 % 0 in
00:22 61.9 °F 54.9 °F 30.3 in Calm   2 mph 78 % 0 in
00:32 61.9 °F 55.2 °F 30.3 in Calm   2 mph 79 % 0 in
00:37 62.1 °F 55 °F 30.3 in Calm   2 mph 78 % 0 in
00:42 62.1 °F 55 °F 30.3 in Calm   1 mph 78 % 0 in
00:52 62.2 °F 54.9 °F 30.3 in Calm   1 mph 77 % 0 in
00:57 61.9 °F 54.9 °F 30.3 in NW 1 mph 1 mph 78 % 0 in
01:02 61.3 °F 54.9 °F 30.3 in NW 1 mph 1 mph 79 % 0 in
01:07 61.3 °F 55 °F 30.3 in Calm   1 mph 80 % 0 in
01:12 62.2 °F 55.2 °F 30.3 in Calm   1 mph 78 % 0 in
01:17 62.8 °F 55 °F 30.3 in Calm   1 mph 76 % 0 in
01:22 62.4 °F 54.7 °F 30.3 in WNW 1 mph 1 mph 76 % 0 in
01:27 61 °F 54.5 °F 30.3 in WNW 2 mph 2 mph 79 % 0 in
01:32 61 °F 55 °F 30.3 in NW 1 mph 2 mph 81 % 0 in
01:42 61.3 °F 55 °F 30.2 in NNE 1 mph 2 mph 80 % 0 in
01:47 61.5 °F 54.9 °F 30.2 in NNE 3 mph 4 mph 79 % 0 in
01:52 62.1 °F 55 °F 30.2 in NNE 2 mph 4 mph 78 % 0 in
01:57 61.9 °F 54.9 °F 30.2 in NNE 3 mph 4 mph 78 % 0 in
02:02 61.9 °F 55.2 °F 30.2 in NNE 1 mph 4 mph 79 % 0 in
02:07 61.5 °F 54.9 °F 30.2 in Calm   3 mph 79 % 0 in
02:12 61.5 °F 54.9 °F 30.2 in Calm   3 mph 79 % 0 in
02:17 61.3 °F 55 °F 30.2 in Calm   2 mph 80 % 0 in
02:22 61.3 °F 55 °F 30.2 in Calm   1 mph 80 % 0 in
02:27 61.2 °F 54.9 °F 30.2 in Calm   1 mph 80 % 0 in
02:37 60.3 °F 54.3 °F 30.2 in Calm     81 % 0 in
02:47 59.2 °F 54.3 °F 30.2 in Calm     84 % 0 in
02:52 59.2 °F 54.7 °F 30.2 in Calm     85 % 0 in
03:02 58.6 °F 54.5 °F 30.2 in Calm     86 % 0 in
03:12 58.8 °F 54.3 °F 30.2 in Calm     85 % 0 in
03:17 57.9 °F 53.1 °F 30.2 in WNW 1 mph 3 mph 84 % 0 in
03:22 57.7 °F 54 °F 30.2 in WNW 1 mph 3 mph 87 % 0 in
03:32 57.7 °F 53.2 °F 30.2 in Calm   2 mph 85 % 0 in
03:42 57 °F 53.4 °F 30.2 in Calm     88 % 0 in
03:47 57 °F 53.4 °F 30.2 in Calm     88 % 0 in
03:52 56.8 °F 53.2 °F 30.2 in Calm     88 % 0 in
03:57 56.7 °F 53.1 °F 30.2 in Calm     88 % 0 in
04:02 56.5 °F 53.2 °F 30.2 in Calm     89 % 0 in
04:07 56.5 °F 53.2 °F 30.2 in Calm     89 % 0 in
04:12 56.7 °F 53.4 °F 30.2 in Calm     89 % 0 in
04:17 56.8 °F 53.6 °F 30.2 in NNE 2 mph   89 % 0 in
04:22 57 °F 53.2 °F 30.2 in NNE 2 mph 3 mph 87 % 0 in
04:27 57 °F 53.2 °F 30.2 in Calm   3 mph 87 % 0 in
04:32 55.6 °F 51.4 °F 30.2 in WNW 1 mph 3 mph 86 % 0 in
04:37 55.2 °F 52 °F 30.2 in WNW 1 mph 2 mph 89 % 0 in
04:42 55 °F 51.8 °F 30.2 in Calm   2 mph 89 % 0 in
04:47 54.9 °F 52 °F 30.2 in Calm   2 mph 90 % 0 in
04:52 54.9 °F 52.3 °F 30.2 in Calm   2 mph 91 % 0 in
04:57 54.5 °F 52 °F 30.2 in Calm     91 % 0 in
05:02 54.7 °F 52.2 °F 30.2 in Calm     91 % 0 in
05:12 55 °F 52.5 °F 30.2 in Calm   1 mph 91 % 0 in
05:17 54.9 °F 52.3 °F 30.2 in Calm   1 mph 91 % 0 in
05:22 54.7 °F 52.2 °F 30.2 in Calm   1 mph 91 % 0 in
05:27 54.9 °F 52.3 °F 30.2 in Calm     91 % 0 in
05:32 55 °F 52.5 °F 30.2 in Calm   1 mph 91 % 0 in
05:37 55 °F 52.2 °F 30.2 in Calm   1 mph 90 % 0 in
05:42 54.7 °F 51.8 °F 30.2 in Calm   1 mph 90 % 0 in
05:47 54.3 °F 51.4 °F 30.2 in Calm     90 % 0 in
05:52 53.8 °F 51.3 °F 30.2 in WNW 2 mph 2 mph 91 % 0 in
05:57 53.6 °F 51.3 °F 30.2 in WNW 1 mph 2 mph 92 % 0 in
06:02 53.8 °F 51.4 °F 30.2 in North 1 mph 2 mph 92 % 0 in
06:07 54 °F 52 °F 30.2 in Calm   2 mph 93 % 0 in
06:12 54.1 °F 51.8 °F 30.2 in Calm   2 mph 92 % 0 in
06:17 54 °F 51.6 °F 30.2 in Calm   1 mph 92 % 0 in
06:22 54.1 °F 51.8 °F 30.2 in Calm   1 mph 92 % 0 in
06:32 54.7 °F 52.2 °F 30.2 in Calm     91 % 0 in
06:42 55 °F 52.5 °F 30.2 in Calm     91 % 0 in
06:52 54.9 °F 52 °F 30.2 in Calm   1 mph 90 % 0 in
07:02 54.9 °F 52.3 °F 30.2 in WNW 1 mph 1 mph 91 % 0 in
07:12 55.2 °F 52.9 °F 30.2 in Calm   1 mph 92 % 0 in
07:17 55.6 °F 53.2 °F 30.2 in North 2 mph 2 mph 92 % 0 in
07:22 56.5 °F 53.6 °F 30.2 in Calm   2 mph 90 % 0 in
07:32 58.3 °F 54.5 °F 30.2 in Calm   2 mph 87 % 0 in
07:42 59.4 °F 53.8 °F 30.2 in Calm     82 % 0 in
07:47 59.2 °F 54.3 °F 30.2 in Calm     84 % 0 in
07:52 60.4 °F 55.6 °F 30.2 in Calm     84 % 0 in
07:57 61.9 °F 55.6 °F 30.2 in Calm     80 % 0 in
08:02 62.8 °F 55.4 °F 30.2 in Calm   1 mph 77 % 0 in
08:12 64.2 °F 55 °F 30.2 in Calm   1 mph 72 % 0 in
08:17 64.2 °F 55 °F 30.2 in Calm   1 mph 72 % 0 in
08:22 64.2 °F 54.7 °F 30.2 in Calm   1 mph 71 % 0 in
08:32 64.2 °F 55 °F 30.2 in Calm   2 mph 72 % 0 in
08:37 64.4 °F 55.2 °F 30.2 in Calm   3 mph 72 % 0 in
08:42 64.9 °F 55.8 °F 30.2 in Calm   3 mph 72 % 0 in
08:47 64.2 °F 55.4 °F 30.1 in East 1 mph 3 mph 73 % 0 in
08:52 63.9 °F 55.4 °F 30.1 in ENE 1 mph 3 mph 74 % 0 in
08:57 64.6 °F 56.1 °F 30.1 in East 1 mph 3 mph 74 % 0 in
09:02 64.6 °F 56.1 °F 30.1 in Calm   3 mph 74 % 0 in
09:12 65.5 °F 56.7 °F 30.1 in East 1 mph 3 mph 73 % 0 in
09:17 65.1 °F 55.9 °F 30.1 in ENE 3 mph 3 mph 72 % 0 in
09:22 64.6 °F 55.8 °F 30.1 in East 3 mph 3 mph 73 % 0 in
09:27 64.8 °F 56.7 °F 30.1 in East 1 mph 4 mph 75 % 0 in
09:32 65.5 °F 56.7 °F 30.1 in East 2 mph 4 mph 73 % 0 in
09:37 65.7 °F 57.6 °F 30.1 in Calm   4 mph 75 % 0 in
09:42 66.4 °F 57 °F 30.1 in East 1 mph 4 mph 72 % 0 in
09:47 66.9 °F 57.9 °F 30.1 in Calm   3 mph 73 % 0 in
09:52 67.3 °F 58.3 °F 30.1 in ENE 1 mph 3 mph 73 % 0 in
09:57 67.3 °F 58.3 °F 30.1 in Calm   4 mph 73 % 0 in
10:02 67.8 °F 58.5 °F 30.1 in ESE 1 mph 5 mph 72 % 0 in
10:12 68.5 °F 58.8 °F 30.1 in ENE 1 mph 5 mph 71 % 0 in
10:17 68.7 °F 59 °F 30.1 in ENE 5 mph 5 mph 71 % 0 in
10:22 68.7 °F 59 °F 30.1 in ENE 1 mph 6 mph 71 % 0 in
10:32 69.8 °F 59.5 °F 30.1 in East 1 mph 6 mph 70 % 0 in
10:42 69.4 °F 59.5 °F 30.1 in SSE 2 mph 4 mph 71 % 0 in
10:47 70.3 °F 60.1 °F 30.1 in ENE 2 mph 5 mph 70 % 0 in
10:52 70.9 °F 59.7 °F 30.1 in SE 4 mph 5 mph 68 % 0 in
10:57 71.1 °F 59.9 °F 30.1 in ENE 1 mph 5 mph 68 % 0 in
11:02 71.2 °F 59.7 °F 30.1 in Calm   4 mph 67 % 0 in
11:12 72.3 °F 59.9 °F 30.1 in ENE 2 mph 5 mph 65 % 0 in
11:17 72.3 °F 59.9 °F 30.1 in East 1 mph 5 mph 65 % 0 in
11:22 72.7 °F 61.2 °F 30.1 in ENE 1 mph 4 mph 67 % 0 in
11:27 73.2 °F 61.5 °F 30.1 in SE 2 mph 4 mph 67 % 0 in
11:32 73.9 °F 61.9 °F 30.1 in ENE 2 mph 4 mph 66 % 0 in
11:42 74.1 °F 62.4 °F 30.1 in East 2 mph 4 mph 67 % 0 in
11:47 75 °F 62.1 °F 30.1 in SE 3 mph 5 mph 64 % 0 in
11:52 75.2 °F 60.8 °F 30.1 in South 2 mph 7 mph 61 % 0 in
12:02 75.4 °F 61 °F 30.1 in SE 6 mph 7 mph 61 % 0 in
12:12 75.4 °F 61 °F 30.1 in South 5 mph 7 mph 61 % 0 in
12:17 75.9 °F 61.5 °F 30.1 in ESE 3 mph 8 mph 61 % 0 in
12:22 75.9 °F 61 °F 30.1 in WSW 1 mph 8 mph 60 % 0 in
12:32 76.5 °F 62.1 °F 30.1 in SE 3 mph 8 mph 61 % 0 in
12:37 76.6 °F 61.7 °F 30.1 in SSW 4 mph 8 mph 60 % 0 in
12:42 76.8 °F 61 °F 30.1 in South 2 mph 8 mph 58 % 0 in
12:47 76.8 °F 61.9 °F 30.1 in East 3 mph 10 mph 60 % 0 in
12:52 77.2 °F 61.7 °F 30.1 in SSE 2 mph 10 mph 59 % 0 in
13:02 77.4 °F 61.3 °F 30.1 in SSW 5 mph 8 mph 58 % 0 in
13:07 77.7 °F 61.3 °F 30.1 in South 4 mph 8 mph 57 % 0 in
13:12 78.3 °F 60.8 °F 30.1 in SSE 3 mph 9 mph 55 % 0 in
13:17 78.8 °F 61.7 °F 30.1 in SSE 2 mph 9 mph 56 % 0 in
13:22 78.6 °F 60.6 °F 30.1 in SW 8 mph 9 mph 54 % 0 in
13:27 78.4 °F 59.4 °F 30.1 in SSE 4 mph 12 mph 52 % 0 in
13:32 78.6 °F 59.5 °F 30.1 in SW 7 mph 12 mph 52 % 0 in
13:37 79 °F 59.9 °F 30.1 in SSE 4 mph 12 mph 52 % 0 in
13:42 79.2 °F 59 °F 30 in SW 5 mph 11 mph 50 % 0 in
13:47 79.2 °F 60.1 °F 30 in SSW 3 mph 11 mph 52 % 0 in
13:52 79.5 °F 59.2 °F 30 in WSW 6 mph 11 mph 50 % 0 in
13:57 79.5 °F 56.8 °F 30 in SW 11 mph 11 mph 46 % 0 in
14:02 79.7 °F 58.3 °F 30 in SSW 4 mph 14 mph 48 % 0 in
14:07 79.7 °F 59.4 °F 30 in SW 8 mph 14 mph 50 % 0 in
14:12 80.1 °F 59.2 °F 30 in SW 7 mph 12 mph 49 % 0 in
14:17 79.9 °F 60.1 °F 30 in SSW 5 mph 12 mph 51 % 0 in
14:22 80.1 °F 59.7 °F 30 in SW 4 mph 10 mph 50 % 0 in
14:27 80.6 °F 60.8 °F 30 in SW 9 mph 10 mph 51 % 0 in
14:32 80.8 °F 58.1 °F 30 in WSW 8 mph 10 mph 46 % 0 in
14:37 81.1 °F 57.7 °F 30 in SW 3 mph 10 mph 45 % 0 in
14:42 81 °F 57.6 °F 30 in SW 3 mph 10 mph 45 % 0 in
14:47 81.5 °F 59.4 °F 30 in SW 7 mph 10 mph 47 % 0 in
14:52 81.3 °F 57.9 °F 30 in SW 11 mph 11 mph 45 % 0 in
14:57 81.1 °F 57.7 °F 30 in WSW 9 mph 11 mph 45 % 0 in
15:02 81 °F 58.8 °F 30 in SW 7 mph 13 mph 47 % 0 in
15:07 81 °F 59.4 °F 30 in SSW 6 mph 13 mph 48 % 0 in
15:12 81 °F 57.6 °F 30 in SW 9 mph 13 mph 45 % 0 in
15:17 81.1 °F 58.5 °F 30 in SSW 8 mph 11 mph 46 % 0 in
15:22 81 °F 57.6 °F 30 in SW 4 mph 12 mph 45 % 0 in
15:27 81.1 °F 58.5 °F 30 in SW 5 mph 12 mph 46 % 0 in
15:32 81.3 °F 59.2 °F 30 in WSW 7 mph 12 mph 47 % 0 in
15:37 81.7 °F 58.3 °F 30 in SW 4 mph 10 mph 45 % 0 in
15:42 81.5 °F 58.1 °F 30 in SSW 6 mph 12 mph 45 % 0 in
15:47 81.3 °F 58.6 °F 30 in WSW 3 mph 12 mph 46 % 0 in
15:52 81.7 °F 58.8 °F 30 in SW 4 mph 12 mph 46 % 0 in
15:57 81.9 °F 59 °F 30 in WSW 2 mph 11 mph 46 % 0 in
16:02 82 °F 57.9 °F 30 in SW 5 mph 8 mph 44 % 0 in
16:07 82.2 °F 57.6 °F 30 in SSW 3 mph 9 mph 43 % 0 in
16:12 82 °F 57.4 °F 30 in West 7 mph 9 mph 43 % 0 in
16:17 81.9 °F 57.7 °F 30 in SW 6 mph 12 mph 44 % 0 in
16:22 82.2 °F 56.8 °F 30 in WSW 6 mph 12 mph 42 % 0 in
16:27 82 °F 57.9 °F 30 in SW 3 mph 11 mph 44 % 0 in
16:32 82 °F 57.4 °F 30 in SE 2 mph 11 mph 43 % 0 in
16:37 81.9 °F 57.7 °F 30 in SW 3 mph 11 mph 44 % 0 in
16:42 81.5 °F 56.8 °F 30 in SW 4 mph 12 mph 43 % 0 in
16:47 81.7 °F 58.3 °F 30 in SW 6 mph 12 mph 45 % 0 in
16:52 81.7 °F 57.6 °F 30 in SSW 3 mph 12 mph 44 % 0 in
16:57 81.9 °F 57.7 °F 30 in SSW 6 mph 11 mph 44 % 0 in
17:02 82 °F 58.6 °F 30 in South 4 mph 11 mph 45 % 0 in
17:07 82 °F 57.4 °F 30 in SW 5 mph 9 mph 43 % 0 in
17:12 81.9 °F 59 °F 30 in SW 7 mph 9 mph 46 % 0 in
17:17 81.7 °F 57 °F 30 in SSW 7 mph 13 mph 43 % 0 in
17:22 81.7 °F 58.3 °F 30 in SW 6 mph 13 mph 45 % 0 in
17:32 81.1 °F 59.5 °F 30 in SSW 5 mph 10 mph 48 % 0 in
17:37 81 °F 58.8 °F 30 in SW 6 mph 8 mph 47 % 0 in
17:42 80.8 °F 61 °F 30 in SSW 5 mph 9 mph 51 % 0 in
17:47 80.8 °F 61.5 °F 30 in SW 4 mph 9 mph 52 % 0 in
17:52 80.8 °F 61 °F 30 in SSW 2 mph 9 mph 51 % 0 in
17:57 81 °F 61.2 °F 30 in SW 4 mph 8 mph 51 % 0 in
18:02 81.5 °F 61.7 °F 30 in WSW 5 mph 9 mph 51 % 0 in
18:07 81.5 °F 59.9 °F 30 in South 5 mph 9 mph 48 % 0 in
18:12 81.3 °F 58.6 °F 30 in SSW 5 mph 9 mph 46 % 0 in
18:17 81.1 °F 58.5 °F 30 in SSE 6 mph 9 mph 46 % 0 in
18:22 81.1 °F 58.5 °F 30 in SW 9 mph 9 mph 46 % 0 in
18:32 80.6 °F 60.3 °F 30 in SW 3 mph 9 mph 50 % 0 in
18:42 80.2 °F 61 °F 29.9 in SW 2 mph 8 mph 52 % 0 in
18:47 80.1 °F 60.3 °F 29.9 in SSW 5 mph 7 mph 51 % 0 in
18:52 79.7 °F 61.5 °F 29.9 in SW 4 mph 7 mph 54 % 0 in
18:57 79.3 °F 61.2 °F 29.9 in SW 3 mph 6 mph 54 % 0 in
19:02 79.3 °F 60.8 °F 29.9 in SW 3 mph 6 mph 53 % 0 in
19:07 79.2 °F 61.2 °F 29.9 in SSW 2 mph 6 mph 54 % 0 in
19:12 79.3 °F 60.8 °F 29.9 in SSW 3 mph 6 mph 53 % 0 in
19:17 79.3 °F 61.2 °F 29.9 in SW 2 mph 6 mph 54 % 0 in
19:22 79.9 °F 61.7 °F 29.9 in SW 3 mph 5 mph 54 % 0 in
19:27 80.1 °F 60.8 °F 29.9 in WSW 2 mph 5 mph 52 % 0 in
19:32 80.1 °F 60.8 °F 29.9 in SSW 5 mph 5 mph 52 % 0 in
19:37 80.2 °F 60.4 °F 29.9 in SW 5 mph 5 mph 51 % 0 in
19:42 80.4 °F 61.2 °F 29.9 in WSW 2 mph 7 mph 52 % 0 in
19:47 80.4 °F 60.6 °F 29.9 in WSW 4 mph 7 mph 51 % 0 in
19:52 80.1 °F 61.3 °F 29.9 in South 3 mph 7 mph 53 % 0 in
19:57 79.9 °F 61.7 °F 29.9 in SW 4 mph 7 mph 54 % 0 in
20:02 79.7 °F 62.1 °F 29.9 in SW 2 mph 7 mph 55 % 0 in
20:07 79.3 °F 61.7 °F 29.9 in SW 4 mph 7 mph 55 % 0 in
20:12 79.2 °F 62.1 °F 29.9 in WSW 2 mph 5 mph 56 % 0 in
20:17 79 °F 61.5 °F 29.9 in SW 3 mph 5 mph 55 % 0 in
20:22 78.6 °F 60.6 °F 29.9 in SW 3 mph 5 mph 54 % 0 in
20:27 78.6 °F 60.6 °F 29.9 in WSW 3 mph 5 mph 54 % 0 in
20:32 78.4 °F 60.4 °F 29.9 in SSW 4 mph 5 mph 54 % 0 in
20:37 78.1 °F 61.2 °F 29.9 in SSW 2 mph 5 mph 56 % 0 in
20:47 77.5 °F 61.2 °F 29.9 in WSW 2 mph 5 mph 57 % 0 in
20:52 77.4 °F 61 °F 29.9 in SW 2 mph 5 mph 57 % 0 in
20:57 77.2 °F 61.3 °F 29.9 in WSW 3 mph 5 mph 58 % 0 in
21:02 76.8 °F 60.4 °F 29.9 in WSW 1 mph 5 mph 57 % 0 in
21:07 76.6 °F 60.3 °F 29.9 in SW 1 mph 5 mph 57 % 0 in
21:12 76.3 °F 59.9 °F 29.9 in WSW 2 mph 6 mph 57 % 0 in
21:17 75.9 °F 60.6 °F 29.9 in WSW 2 mph 6 mph 59 % 0 in
21:22 75.6 °F 62.6 °F 29.9 in West 9 mph 9 mph 64 % 0 in
21:27 73.9 °F 61 °F 29.9 in WNW 7 mph 16 mph 64 % 0 in
21:32 73.2 °F 60.8 °F 30 in WNW 11 mph 16 mph 65 % 0 in
21:37 72.7 °F 60.6 °F 30 in WNW 4 mph 16 mph 66 % 0 in
21:42 72.1 °F 60.6 °F 30 in WNW 2 mph 14 mph 67 % 0 in
21:47 71.6 °F 60.4 °F 30 in NW 2 mph 14 mph 68 % 0 in
21:52 71.2 °F 60.6 °F 30 in WNW 4 mph 13 mph 69 % 0 in
21:57 70.9 °F 60.6 °F 30 in WNW 7 mph 11 mph 70 % 0 in
22:02 70.5 °F 60.6 °F 30 in WNW 6 mph 11 mph 71 % 0 in
22:07 70.5 °F 60.6 °F 30 in West 11 mph 13 mph 71 % 0 in
22:12 70.3 °F 60.8 °F 30 in NW 3 mph 15 mph 72 % 0 in
22:17 70 °F 60.6 °F 30 in WNW 3 mph 15 mph 72 % 0 in
22:22 69.6 °F 60.6 °F 30 in West 8 mph 15 mph 73 % 0 in
22:27 69.4 °F 61.2 °F 30 in West 6 mph 14 mph 75 % 0 in
22:32 69.1 °F 60.8 °F 30 in WNW 10 mph 18 mph 75 % 0 in
22:37 68.7 °F 60.4 °F 30 in West 6 mph 18 mph 75 % 0 in
22:42 68.4 °F 60.4 °F 30 in WNW 5 mph 18 mph 76 % 0 in
22:47 68 °F 60.1 °F 30 in WNW 7 mph 19 mph 76 % 0 in
22:52 67.8 °F 59.9 °F 30 in WNW 6 mph 19 mph 76 % 0 in
22:57 67.5 °F 59.5 °F 30 in West 5 mph 19 mph 76 % 0 in
23:02 67.3 °F 59.5 °F 30 in WNW 4 mph 19 mph 76 % 0 in
23:07 67.1 °F 59.4 °F 30 in West 7 mph 14 mph 76 % 0 in
23:12 66.9 °F 59.2 °F 30 in West 6 mph 15 mph 76 % 0 in
23:17 66.7 °F 59.4 °F 30 in West 11 mph 15 mph 77 % 0 in
23:22 66.6 °F 59.2 °F 30 in WNW 3 mph 14 mph 77 % 0 in
23:27 66.4 °F 59.4 °F 30 in WNW 8 mph 17 mph 78 % 0 in
23:32 66.2 °F 59.2 °F 30 in West 5 mph 17 mph 78 % 0 in
23:37 65.8 °F 58.8 °F 30 in WSW 4 mph 17 mph 78 % 0 in
23:42 65.7 °F 58.6 °F 30 in WNW 2 mph 10 mph 78 % 0 in
23:52 65.5 °F 58.8 °F 30 in West 4 mph 11 mph 79 % 0 in
23:57 65.1 °F 58.8 °F 30 in West 4 mph 11 mph 80 % 0 in
Meteo18
Compliments of Weather Underground - 4 mb

Script developed by  Jim McMurry - jmcmurry@mwt.net Adapted for the template by  Wim van der Kuil - Leuven-Template.eu

You find our weather info also at:

European Weather Network

Weather Underground

Equipment we use:

Weather-station
Davis Vue

Weather-program
Meteohub

Weather-server
Raspberry PI 2 B+

Provider
1 and 1

Davis Vue

Meteohub

Raspberry PI 2 B+

1 and 1